sensor_id;sensor_type;location;lat;lon;timestamp;P1;durP1;ratioP1;P2;durP2;ratioP2
35699;SDS011;21818;51.078;12.108;2023-07-20T00:01:14;4.95;;;1.65;;
35699;SDS011;21818;51.078;12.108;2023-07-20T00:03:39;10.00;;;2.17;;
35699;SDS011;21818;51.078;12.108;2023-07-20T00:06:05;8.05;;;2.22;;
35699;SDS011;21818;51.078;12.108;2023-07-20T00:08:31;5.13;;;1.63;;
35699;SDS011;21818;51.078;12.108;2023-07-20T00:10:57;6.78;;;2.10;;
35699;SDS011;21818;51.078;12.108;2023-07-20T00:13:23;7.45;;;2.10;;
35699;SDS011;21818;51.078;12.108;2023-07-20T00:15:49;4.68;;;2.00;;
35699;SDS011;21818;51.078;12.108;2023-07-20T00:18:16;8.63;;;2.20;;
35699;SDS011;21818;51.078;12.108;2023-07-20T00:20:41;4.00;;;1.80;;
35699;SDS011;21818;51.078;12.108;2023-07-20T00:23:07;8.65;;;2.13;;
35699;SDS011;21818;51.078;12.108;2023-07-20T00:25:32;5.25;;;1.88;;
35699;SDS011;21818;51.078;12.108;2023-07-20T00:27:59;10.27;;;1.77;;
35699;SDS011;21818;51.078;12.108;2023-07-20T00:30:25;5.40;;;2.63;;
35699;SDS011;21818;51.078;12.108;2023-07-20T00:32:51;8.80;;;1.75;;
35699;SDS011;21818;51.078;12.108;2023-07-20T00:35:16;7.47;;;1.80;;
35699;SDS011;21818;51.078;12.108;2023-07-20T00:37:42;4.85;;;2.20;;
35699;SDS011;21818;51.078;12.108;2023-07-20T00:40:07;7.20;;;2.38;;
35699;SDS011;21818;51.078;12.108;2023-07-20T00:42:34;4.82;;;1.42;;
35699;SDS011;21818;51.078;12.108;2023-07-20T00:44:59;6.13;;;1.73;;
35699;SDS011;21818;51.078;12.108;2023-07-20T00:47:25;5.45;;;2.13;;
35699;SDS011;21818;51.078;12.108;2023-07-20T00:49:52;3.47;;;1.92;;
35699;SDS011;21818;51.078;12.108;2023-07-20T00:52:18;7.78;;;1.50;;
35699;SDS011;21818;51.078;12.108;2023-07-20T00:54:45;9.27;;;2.17;;
35699;SDS011;21818;51.078;12.108;2023-07-20T00:57:12;5.68;;;1.98;;
35699;SDS011;21818;51.078;12.108;2023-07-20T00:59:40;4.00;;;1.80;;
35699;SDS011;21818;51.078;12.108;2023-07-20T01:02:05;8.38;;;2.22;;
35699;SDS011;21818;51.078;12.108;2023-07-20T01:04:31;4.80;;;1.73;;
35699;SDS011;21818;51.078;12.108;2023-07-20T01:07:00;9.27;;;1.95;;
35699;SDS011;21818;51.078;12.108;2023-07-20T01:09:41;9.68;;;2.45;;
35699;SDS011;21818;51.078;12.108;2023-07-20T01:12:12;8.45;;;2.10;;
35699;SDS011;21818;51.078;12.108;2023-07-20T01:14:45;4.80;;;1.95;;
35699;SDS011;21818;51.078;12.108;2023-07-20T01:17:11;13.50;;;2.63;;
35699;SDS011;21818;51.078;12.108;2023-07-20T01:19:37;4.20;;;2.28;;
35699;SDS011;21818;51.078;12.108;2023-07-20T01:22:09;7.15;;;1.75;;
35699;SDS011;21818;51.078;12.108;2023-07-20T01:24:57;8.13;;;2.67;;
35699;SDS011;21818;51.078;12.108;2023-07-20T01:30:45;6.68;;;2.40;;
35699;SDS011;21818;51.078;12.108;2023-07-20T01:33:20;7.63;;;1.80;;
35699;SDS011;21818;51.078;12.108;2023-07-20T01:35:51;14.77;;;2.80;;
35699;SDS011;21818;51.078;12.108;2023-07-20T01:38:20;7.53;;;2.58;;
35699;SDS011;21818;51.078;12.108;2023-07-20T01:40:48;6.60;;;2.30;;
35699;SDS011;21818;51.078;12.108;2023-07-20T01:43:14;10.90;;;2.22;;
35699;SDS011;21818;51.078;12.108;2023-07-20T01:45:41;8.40;;;2.00;;
35699;SDS011;21818;51.078;12.108;2023-07-20T01:48:06;9.95;;;2.30;;
35699;SDS011;21818;51.078;12.108;2023-07-20T01:50:32;8.98;;;2.13;;
35699;SDS011;21818;51.078;12.108;2023-07-20T01:52:59;7.35;;;2.00;;
35699;SDS011;21818;51.078;12.108;2023-07-20T01:55:25;8.05;;;2.38;;
35699;SDS011;21818;51.078;12.108;2023-07-20T01:57:51;7.10;;;2.35;;
35699;SDS011;21818;51.078;12.108;2023-07-20T02:00:17;7.57;;;1.83;;
35699;SDS011;21818;51.078;12.108;2023-07-20T02:02:49;6.03;;;2.00;;
35699;SDS011;21818;51.078;12.108;2023-07-20T02:05:15;10.68;;;2.20;;
35699;SDS011;21818;51.078;12.108;2023-07-20T02:07:41;15.43;;;2.30;;
35699;SDS011;21818;51.078;12.108;2023-07-20T02:10:07;9.30;;;2.42;;
35699;SDS011;21818;51.078;12.108;2023-07-20T02:12:33;13.05;;;2.47;;
35699;SDS011;21818;51.078;12.108;2023-07-20T02:14:59;8.18;;;2.30;;
35699;SDS011;21818;51.078;12.108;2023-07-20T02:17:24;15.80;;;2.13;;
35699;SDS011;21818;51.078;12.108;2023-07-20T02:19:52;14.32;;;2.67;;
35699;SDS011;21818;51.078;12.108;2023-07-20T02:22:18;9.63;;;2.13;;
35699;SDS011;21818;51.078;12.108;2023-07-20T02:24:44;11.52;;;2.33;;
35699;SDS011;21818;51.078;12.108;2023-07-20T02:27:09;4.35;;;2.22;;
35699;SDS011;21818;51.078;12.108;2023-07-20T02:29:35;5.95;;;2.30;;
35699;SDS011;21818;51.078;12.108;2023-07-20T02:32:01;19.13;;;2.90;;
35699;SDS011;21818;51.078;12.108;2023-07-20T02:34:27;12.10;;;2.20;;
35699;SDS011;21818;51.078;12.108;2023-07-20T02:36:52;4.30;;;2.42;;
35699;SDS011;21818;51.078;12.108;2023-07-20T02:39:21;6.60;;;2.05;;
35699;SDS011;21818;51.078;12.108;2023-07-20T02:41:46;7.53;;;2.22;;
35699;SDS011;21818;51.078;12.108;2023-07-20T02:44:13;9.75;;;2.17;;
35699;SDS011;21818;51.078;12.108;2023-07-20T02:46:39;6.85;;;2.35;;
35699;SDS011;21818;51.078;12.108;2023-07-20T02:49:04;4.97;;;2.38;;
35699;SDS011;21818;51.078;12.108;2023-07-20T02:51:30;9.85;;;2.25;;
35699;SDS011;21818;51.078;12.108;2023-07-20T02:53:56;7.45;;;2.50;;
35699;SDS011;21818;51.078;12.108;2023-07-20T02:56:21;7.07;;;2.13;;
35699;SDS011;21818;51.078;12.108;2023-07-20T02:58:47;7.72;;;2.47;;
35699;SDS011;21818;51.078;12.108;2023-07-20T03:01:13;7.97;;;2.05;;
35699;SDS011;21818;51.078;12.108;2023-07-20T03:03:40;6.90;;;2.10;;
35699;SDS011;21818;51.078;12.108;2023-07-20T03:06:10;10.75;;;2.53;;
35699;SDS011;21818;51.078;12.108;2023-07-20T03:08:36;13.98;;;2.00;;
35699;SDS011;21818;51.078;12.108;2023-07-20T03:11:02;9.88;;;2.42;;
35699;SDS011;21818;51.078;12.108;2023-07-20T03:13:27;12.50;;;3.15;;
35699;SDS011;21818;51.078;12.108;2023-07-20T03:15:53;6.28;;;2.55;;
35699;SDS011;21818;51.078;12.108;2023-07-20T03:18:19;5.32;;;2.55;;
35699;SDS011;21818;51.078;12.108;2023-07-20T03:20:44;6.65;;;1.90;;
35699;SDS011;21818;51.078;12.108;2023-07-20T03:23:11;8.60;;;2.50;;
35699;SDS011;21818;51.078;12.108;2023-07-20T03:25:37;11.23;;;2.60;;
35699;SDS011;21818;51.078;12.108;2023-07-20T03:28:03;7.78;;;1.90;;
35699;SDS011;21818;51.078;12.108;2023-07-20T03:30:29;16.90;;;2.33;;
35699;SDS011;21818;51.078;12.108;2023-07-20T03:32:54;14.13;;;2.30;;
35699;SDS011;21818;51.078;12.108;2023-07-20T03:35:20;23.33;;;3.33;;
35699;SDS011;21818;51.078;12.108;2023-07-20T03:37:45;19.00;;;3.22;;
35699;SDS011;21818;51.078;12.108;2023-07-20T03:40:11;20.98;;;2.60;;
35699;SDS011;21818;51.078;12.108;2023-07-20T03:42:37;18.02;;;3.35;;
35699;SDS011;21818;51.078;12.108;2023-07-20T03:45:03;17.48;;;2.83;;
35699;SDS011;21818;51.078;12.108;2023-07-20T03:47:29;18.65;;;2.92;;
35699;SDS011;21818;51.078;12.108;2023-07-20T03:49:55;12.27;;;2.90;;
35699;SDS011;21818;51.078;12.108;2023-07-20T03:52:21;12.55;;;2.03;;
35699;SDS011;21818;51.078;12.108;2023-07-20T03:54:46;9.00;;;2.85;;
35699;SDS011;21818;51.078;12.108;2023-07-20T03:57:12;7.65;;;2.08;;
35699;SDS011;21818;51.078;12.108;2023-07-20T03:59:38;8.68;;;2.00;;
35699;SDS011;21818;51.078;12.108;2023-07-20T04:02:04;8.93;;;2.30;;
35699;SDS011;21818;51.078;12.108;2023-07-20T04:04:30;8.07;;;2.42;;
35699;SDS011;21818;51.078;12.108;2023-07-20T04:06:56;13.38;;;3.10;;
35699;SDS011;21818;51.078;12.108;2023-07-20T04:09:22;15.82;;;2.92;;
35699;SDS011;21818;51.078;12.108;2023-07-20T04:11:47;9.95;;;3.40;;
35699;SDS011;21818;51.078;12.108;2023-07-20T04:14:13;12.93;;;2.70;;
35699;SDS011;21818;51.078;12.108;2023-07-20T04:16:38;3.90;;;1.95;;
35699;SDS011;21818;51.078;12.108;2023-07-20T04:19:04;5.75;;;1.33;;
35699;SDS011;21818;51.078;12.108;2023-07-20T04:21:30;8.48;;;1.40;;
35699;SDS011;21818;51.078;12.108;2023-07-20T04:23:55;2.03;;;1.10;;
35699;SDS011;21818;51.078;12.108;2023-07-20T04:26:21;1.75;;;0.90;;
35699;SDS011;21818;51.078;12.108;2023-07-20T04:28:46;3.90;;;0.90;;
35699;SDS011;21818;51.078;12.108;2023-07-20T04:31:13;3.10;;;0.88;;
35699;SDS011;21818;51.078;12.108;2023-07-20T04:33:39;1.42;;;0.70;;
35699;SDS011;21818;51.078;12.108;2023-07-20T04:36:05;0.90;;;0.40;;
35699;SDS011;21818;51.078;12.108;2023-07-20T04:38:31;2.38;;;0.80;;
35699;SDS011;21818;51.078;12.108;2023-07-20T04:40:57;2.50;;;0.90;;
35699;SDS011;21818;51.078;12.108;2023-07-20T04:43:22;0.93;;;0.40;;
35699;SDS011;21818;51.078;12.108;2023-07-20T04:45:48;3.65;;;0.93;;
35699;SDS011;21818;51.078;12.108;2023-07-20T04:48:15;3.65;;;1.10;;
35699;SDS011;21818;51.078;12.108;2023-07-20T04:50:43;4.15;;;1.27;;
35699;SDS011;21818;51.078;12.108;2023-07-20T04:53:10;1.88;;;1.05;;
35699;SDS011;21818;51.078;12.108;2023-07-20T04:55:39;5.75;;;1.75;;
35699;SDS011;21818;51.078;12.108;2023-07-20T04:58:05;3.50;;;1.27;;
35699;SDS011;21818;51.078;12.108;2023-07-20T05:00:35;2.22;;;1.30;;
35699;SDS011;21818;51.078;12.108;2023-07-20T05:05:30;2.65;;;1.30;;
35699;SDS011;21818;51.078;12.108;2023-07-20T05:07:55;5.82;;;1.60;;
35699;SDS011;21818;51.078;12.108;2023-07-20T05:10:21;3.90;;;1.52;;
35699;SDS011;21818;51.078;12.108;2023-07-20T05:12:48;1.98;;;1.05;;
35699;SDS011;21818;51.078;12.108;2023-07-20T05:15:14;5.22;;;1.67;;
35699;SDS011;21818;51.078;12.108;2023-07-20T05:17:40;2.92;;;1.20;;
35699;SDS011;21818;51.078;12.108;2023-07-20T05:20:06;5.15;;;1.70;;
35699;SDS011;21818;51.078;12.108;2023-07-20T05:22:32;7.88;;;3.05;;
35699;SDS011;21818;51.078;12.108;2023-07-20T05:24:58;3.50;;;1.50;;
35699;SDS011;21818;51.078;12.108;2023-07-20T05:27:24;5.75;;;2.05;;
35699;SDS011;21818;51.078;12.108;2023-07-20T05:29:49;4.35;;;1.38;;
35699;SDS011;21818;51.078;12.108;2023-07-20T05:32:15;6.80;;;2.60;;
35699;SDS011;21818;51.078;12.108;2023-07-20T05:34:41;8.75;;;2.45;;
35699;SDS011;21818;51.078;12.108;2023-07-20T05:37:06;6.50;;;2.35;;
35699;SDS011;21818;51.078;12.108;2023-07-20T05:39:32;4.35;;;2.90;;
35699;SDS011;21818;51.078;12.108;2023-07-20T05:41:58;9.90;;;2.65;;
35699;SDS011;21818;51.078;12.108;2023-07-20T05:44:23;10.15;;;3.08;;
35699;SDS011;21818;51.078;12.108;2023-07-20T05:46:49;4.88;;;2.58;;
35699;SDS011;21818;51.078;12.108;2023-07-20T05:49:15;4.78;;;2.30;;
35699;SDS011;21818;51.078;12.108;2023-07-20T05:51:40;4.18;;;2.60;;
35699;SDS011;21818;51.078;12.108;2023-07-20T05:54:06;7.32;;;2.88;;
35699;SDS011;21818;51.078;12.108;2023-07-20T05:56:31;5.55;;;2.40;;
35699;SDS011;21818;51.078;12.108;2023-07-20T05:58:57;10.13;;;3.55;;
35699;SDS011;21818;51.078;12.108;2023-07-20T06:01:23;7.32;;;3.13;;
35699;SDS011;21818;51.078;12.108;2023-07-20T06:03:51;9.75;;;3.42;;
35699;SDS011;21818;51.078;12.108;2023-07-20T06:06:17;7.13;;;3.63;;
35699;SDS011;21818;51.078;12.108;2023-07-20T06:08:43;8.55;;;3.40;;
35699;SDS011;21818;51.078;12.108;2023-07-20T06:11:08;7.85;;;2.65;;
35699;SDS011;21818;51.078;12.108;2023-07-20T06:13:35;4.72;;;2.63;;
35699;SDS011;21818;51.078;12.108;2023-07-20T06:16:00;4.85;;;3.03;;
35699;SDS011;21818;51.078;12.108;2023-07-20T06:18:26;6.32;;;3.03;;
35699;SDS011;21818;51.078;12.108;2023-07-20T06:20:52;9.15;;;3.33;;
35699;SDS011;21818;51.078;12.108;2023-07-20T06:23:18;6.55;;;3.40;;
35699;SDS011;21818;51.078;12.108;2023-07-20T06:25:44;5.03;;;3.30;;
35699;SDS011;21818;51.078;12.108;2023-07-20T06:28:10;8.82;;;3.67;;
35699;SDS011;21818;51.078;12.108;2023-07-20T06:30:36;3.40;;;2.70;;
35699;SDS011;21818;51.078;12.108;2023-07-20T06:33:02;7.65;;;2.72;;
35699;SDS011;21818;51.078;12.108;2023-07-20T06:35:28;4.70;;;3.05;;
35699;SDS011;21818;51.078;12.108;2023-07-20T06:37:53;7.22;;;3.47;;
35699;SDS011;21818;51.078;12.108;2023-07-20T06:40:19;6.38;;;2.38;;
35699;SDS011;21818;51.078;12.108;2023-07-20T06:42:45;7.93;;;2.78;;
35699;SDS011;21818;51.078;12.108;2023-07-20T06:45:11;6.85;;;3.50;;
35699;SDS011;21818;51.078;12.108;2023-07-20T06:47:38;4.95;;;2.28;;
35699;SDS011;21818;51.078;12.108;2023-07-20T06:50:07;3.97;;;2.97;;
35699;SDS011;21818;51.078;12.108;2023-07-20T06:52:34;5.68;;;2.63;;
35699;SDS011;21818;51.078;12.108;2023-07-20T06:54:59;4.45;;;2.65;;
35699;SDS011;21818;51.078;12.108;2023-07-20T06:57:25;8.13;;;3.10;;
35699;SDS011;21818;51.078;12.108;2023-07-20T06:59:51;5.78;;;3.60;;
35699;SDS011;21818;51.078;12.108;2023-07-20T07:02:17;5.55;;;2.83;;
35699;SDS011;21818;51.078;12.108;2023-07-20T07:04:43;6.70;;;3.42;;
35699;SDS011;21818;51.078;12.108;2023-07-20T07:07:08;9.27;;;3.78;;
35699;SDS011;21818;51.078;12.108;2023-07-20T07:09:35;7.57;;;3.13;;
35699;SDS011;21818;51.078;12.108;2023-07-20T07:12:00;4.88;;;2.83;;
35699;SDS011;21818;51.078;12.108;2023-07-20T07:14:26;6.47;;;3.10;;
35699;SDS011;21818;51.078;12.108;2023-07-20T07:16:52;5.38;;;3.30;;
35699;SDS011;21818;51.078;12.108;2023-07-20T07:19:17;6.47;;;2.97;;
35699;SDS011;21818;51.078;12.108;2023-07-20T07:21:43;5.85;;;3.30;;
35699;SDS011;21818;51.078;12.108;2023-07-20T07:24:08;8.52;;;3.22;;
35699;SDS011;21818;51.078;12.108;2023-07-20T07:26:35;7.65;;;3.38;;
35699;SDS011;21818;51.078;12.108;2023-07-20T07:29:01;6.32;;;3.63;;
35699;SDS011;21818;51.078;12.108;2023-07-20T07:31:28;6.95;;;3.20;;
35699;SDS011;21818;51.078;12.108;2023-07-20T07:33:55;6.45;;;3.50;;
35699;SDS011;21818;51.078;12.108;2023-07-20T07:36:21;5.70;;;3.22;;
35699;SDS011;21818;51.078;12.108;2023-07-20T07:38:46;7.60;;;3.15;;
35699;SDS011;21818;51.078;12.108;2023-07-20T07:41:12;7.75;;;3.17;;
35699;SDS011;21818;51.078;12.108;2023-07-20T07:43:38;6.05;;;2.30;;
35699;SDS011;21818;51.078;12.108;2023-07-20T07:46:04;4.05;;;2.15;;
35699;SDS011;21818;51.078;12.108;2023-07-20T07:48:30;4.80;;;1.70;;
35699;SDS011;21818;51.078;12.108;2023-07-20T07:50:55;2.97;;;1.45;;
35699;SDS011;21818;51.078;12.108;2023-07-20T07:53:21;3.50;;;1.65;;
35699;SDS011;21818;51.078;12.108;2023-07-20T07:55:47;3.63;;;1.52;;
35699;SDS011;21818;51.078;12.108;2023-07-20T07:58:13;6.07;;;1.23;;
35699;SDS011;21818;51.078;12.108;2023-07-20T08:00:39;2.75;;;1.30;;
35699;SDS011;21818;51.078;12.108;2023-07-20T08:03:08;5.13;;;1.60;;
35699;SDS011;21818;51.078;12.108;2023-07-20T08:05:33;4.05;;;1.50;;
35699;SDS011;21818;51.078;12.108;2023-07-20T08:08:00;4.03;;;1.52;;
35699;SDS011;21818;51.078;12.108;2023-07-20T08:10:26;3.60;;;1.50;;
35699;SDS011;21818;51.078;12.108;2023-07-20T08:12:52;4.72;;;1.33;;
35699;SDS011;21818;51.078;12.108;2023-07-20T08:15:17;4.13;;;1.33;;
35699;SDS011;21818;51.078;12.108;2023-07-20T08:17:43;3.58;;;1.25;;
35699;SDS011;21818;51.078;12.108;2023-07-20T08:20:09;4.22;;;1.00;;
35699;SDS011;21818;51.078;12.108;2023-07-20T08:22:38;3.47;;;1.73;;
35699;SDS011;21818;51.078;12.108;2023-07-20T08:25:05;3.42;;;1.10;;
35699;SDS011;21818;51.078;12.108;2023-07-20T08:27:31;2.47;;;1.10;;
35699;SDS011;21818;51.078;12.108;2023-07-20T08:29:57;2.67;;;1.20;;
35699;SDS011;21818;51.078;12.108;2023-07-20T08:32:22;1.95;;;0.98;;
35699;SDS011;21818;51.078;12.108;2023-07-20T08:34:48;2.00;;;1.17;;
35699;SDS011;21818;51.078;12.108;2023-07-20T08:37:14;2.88;;;1.10;;
35699;SDS011;21818;51.078;12.108;2023-07-20T08:39:39;3.13;;;0.95;;
35699;SDS011;21818;51.078;12.108;2023-07-20T08:42:05;3.55;;;1.23;;
35699;SDS011;21818;51.078;12.108;2023-07-20T08:44:35;3.53;;;1.30;;
35699;SDS011;21818;51.078;12.108;2023-07-20T08:47:01;1.98;;;1.17;;
35699;SDS011;21818;51.078;12.108;2023-07-20T08:49:28;1.58;;;0.98;;
35699;SDS011;21818;51.078;12.108;2023-07-20T08:51:56;2.83;;;1.17;;
35699;SDS011;21818;51.078;12.108;2023-07-20T08:54:23;1.45;;;1.00;;
35699;SDS011;21818;51.078;12.108;2023-07-20T08:56:52;1.65;;;0.77;;
35699;SDS011;21818;51.078;12.108;2023-07-20T08:59:19;2.53;;;0.93;;
35699;SDS011;21818;51.078;12.108;2023-07-20T09:01:46;1.77;;;1.02;;
35699;SDS011;21818;51.078;12.108;2023-07-20T09:04:12;1.98;;;0.80;;
35699;SDS011;21818;51.078;12.108;2023-07-20T09:06:38;2.20;;;1.20;;
35699;SDS011;21818;51.078;12.108;2023-07-20T09:09:04;3.42;;;1.33;;
35699;SDS011;21818;51.078;12.108;2023-07-20T09:11:30;2.00;;;1.10;;
35699;SDS011;21818;51.078;12.108;2023-07-20T09:14:05;1.70;;;1.02;;
35699;SDS011;21818;51.078;12.108;2023-07-20T09:16:32;2.40;;;1.30;;
35699;SDS011;21818;51.078;12.108;2023-07-20T09:19:11;2.58;;;0.98;;
35699;SDS011;21818;51.078;12.108;2023-07-20T09:21:37;4.03;;;1.20;;
35699;SDS011;21818;51.078;12.108;2023-07-20T09:24:02;2.35;;;1.30;;
35699;SDS011;21818;51.078;12.108;2023-07-20T09:26:28;2.90;;;1.55;;
35699;SDS011;21818;51.078;12.108;2023-07-20T09:28:54;1.83;;;1.10;;
35699;SDS011;21818;51.078;12.108;2023-07-20T09:31:21;2.05;;;0.90;;
35699;SDS011;21818;51.078;12.108;2023-07-20T09:33:48;2.10;;;1.10;;
35699;SDS011;21818;51.078;12.108;2023-07-20T09:36:15;1.45;;;1.17;;
35699;SDS011;21818;51.078;12.108;2023-07-20T09:38:43;1.38;;;1.00;;
35699;SDS011;21818;51.078;12.108;2023-07-20T09:41:13;1.98;;;1.00;;
35699;SDS011;21818;51.078;12.108;2023-07-20T09:43:40;5.80;;;1.35;;
35699;SDS011;21818;51.078;12.108;2023-07-20T09:46:06;1.65;;;0.93;;
35699;SDS011;21818;51.078;12.108;2023-07-20T09:48:32;2.13;;;1.20;;
35699;SDS011;21818;51.078;12.108;2023-07-20T09:50:58;1.38;;;0.90;;
35699;SDS011;21818;51.078;12.108;2023-07-20T09:53:24;1.15;;;1.00;;
35699;SDS011;21818;51.078;12.108;2023-07-20T09:55:50;1.90;;;1.00;;
35699;SDS011;21818;51.078;12.108;2023-07-20T09:58:18;3.53;;;0.85;;
35699;SDS011;21818;51.078;12.108;2023-07-20T10:00:45;1.73;;;1.20;;
35699;SDS011;21818;51.078;12.108;2023-07-20T10:03:19;1.13;;;0.82;;
35699;SDS011;21818;51.078;12.108;2023-07-20T10:06:05;3.15;;;1.05;;
35699;SDS011;21818;51.078;12.108;2023-07-20T10:08:33;2.22;;;0.85;;
35699;SDS011;21818;51.078;12.108;2023-07-20T10:11:04;1.70;;;1.02;;
35699;SDS011;21818;51.078;12.108;2023-07-20T10:13:32;1.90;;;0.93;;
35699;SDS011;21818;51.078;12.108;2023-07-20T10:16:03;1.10;;;0.80;;
35699;SDS011;21818;51.078;12.108;2023-07-20T10:21:26;1.13;;;0.90;;
35699;SDS011;21818;51.078;12.108;2023-07-20T10:23:52;3.05;;;0.90;;
35699;SDS011;21818;51.078;12.108;2023-07-20T10:26:19;3.47;;;0.90;;
35699;SDS011;21818;51.078;12.108;2023-07-20T10:28:44;3.22;;;0.93;;
35699;SDS011;21818;51.078;12.108;2023-07-20T10:31:12;1.40;;;0.93;;
35699;SDS011;21818;51.078;12.108;2023-07-20T10:33:38;1.77;;;1.00;;
35699;SDS011;21818;51.078;12.108;2023-07-20T10:36:04;1.60;;;0.85;;
35699;SDS011;21818;51.078;12.108;2023-07-20T10:41:33;1.35;;;0.98;;
35699;SDS011;21818;51.078;12.108;2023-07-20T10:44:01;1.20;;;0.80;;
35699;SDS011;21818;51.078;12.108;2023-07-20T10:46:44;0.95;;;0.80;;
35699;SDS011;21818;51.078;12.108;2023-07-20T10:49:10;0.93;;;0.70;;
35699;SDS011;21818;51.078;12.108;2023-07-20T10:51:47;1.60;;;0.80;;
35699;SDS011;21818;51.078;12.108;2023-07-20T10:56:48;1.65;;;1.02;;
35699;SDS011;21818;51.078;12.108;2023-07-20T11:01:45;3.00;;;0.85;;
35699;SDS011;21818;51.078;12.108;2023-07-20T11:04:12;2.22;;;0.75;;
35699;SDS011;21818;51.078;12.108;2023-07-20T11:06:38;1.00;;;0.70;;
35699;SDS011;21818;51.078;12.108;2023-07-20T11:09:10;1.30;;;0.82;;
35699;SDS011;21818;51.078;12.108;2023-07-20T11:11:37;3.10;;;1.10;;
35699;SDS011;21818;51.078;12.108;2023-07-20T11:14:10;1.80;;;0.77;;
35699;SDS011;21818;51.078;12.108;2023-07-20T11:16:46;2.20;;;0.90;;
35699;SDS011;21818;51.078;12.108;2023-07-20T11:19:20;1.08;;;0.80;;
35699;SDS011;21818;51.078;12.108;2023-07-20T11:21:52;1.52;;;0.80;;
35699;SDS011;21818;51.078;12.108;2023-07-20T11:24:22;1.10;;;0.82;;
35699;SDS011;21818;51.078;12.108;2023-07-20T11:26:52;1.48;;;0.98;;
35699;SDS011;21818;51.078;12.108;2023-07-20T11:29:19;1.20;;;0.83;;
35699;SDS011;21818;51.078;12.108;2023-07-20T11:31:46;2.00;;;0.60;;
35699;SDS011;21818;51.078;12.108;2023-07-20T11:34:14;2.15;;;0.82;;
35699;SDS011;21818;51.078;12.108;2023-07-20T11:36:44;1.77;;;1.00;;
35699;SDS011;21818;51.078;12.108;2023-07-20T11:39:11;1.55;;;0.80;;
35699;SDS011;21818;51.078;12.108;2023-07-20T11:41:46;1.30;;;0.70;;
35699;SDS011;21818;51.078;12.108;2023-07-20T11:44:13;0.98;;;0.80;;
35699;SDS011;21818;51.078;12.108;2023-07-20T11:46:40;0.95;;;0.80;;
35699;SDS011;21818;51.078;12.108;2023-07-20T11:49:07;1.25;;;0.70;;
35699;SDS011;21818;51.078;12.108;2023-07-20T11:51:34;2.47;;;0.65;;
35699;SDS011;21818;51.078;12.108;2023-07-20T11:54:01;1.17;;;0.70;;
35699;SDS011;21818;51.078;12.108;2023-07-20T11:56:27;1.45;;;1.02;;
35699;SDS011;21818;51.078;12.108;2023-07-20T11:58:59;1.45;;;1.00;;
35699;SDS011;21818;51.078;12.108;2023-07-20T12:01:27;1.00;;;0.47;;
35699;SDS011;21818;51.078;12.108;2023-07-20T12:04:12;1.15;;;0.80;;
35699;SDS011;21818;51.078;12.108;2023-07-20T12:06:38;1.42;;;0.80;;
35699;SDS011;21818;51.078;12.108;2023-07-20T12:09:03;1.42;;;0.73;;
35699;SDS011;21818;51.078;12.108;2023-07-20T12:11:39;1.17;;;0.70;;
35699;SDS011;21818;51.078;12.108;2023-07-20T12:14:07;2.38;;;0.90;;
35699;SDS011;21818;51.078;12.108;2023-07-20T12:16:34;1.25;;;0.70;;
35699;SDS011;21818;51.078;12.108;2023-07-20T12:19:03;1.10;;;0.65;;
35699;SDS011;21818;51.078;12.108;2023-07-20T12:21:31;0.80;;;0.60;;
35699;SDS011;21818;51.078;12.108;2023-07-20T12:23:58;1.23;;;0.82;;
35699;SDS011;21818;51.078;12.108;2023-07-20T12:26:24;1.02;;;0.82;;
35699;SDS011;21818;51.078;12.108;2023-07-20T12:28:51;2.90;;;0.90;;
35699;SDS011;21818;51.078;12.108;2023-07-20T12:31:17;1.67;;;0.85;;
35699;SDS011;21818;51.078;12.108;2023-07-20T12:33:43;0.85;;;0.60;;
35699;SDS011;21818;51.078;12.108;2023-07-20T12:36:09;1.35;;;0.80;;
35699;SDS011;21818;51.078;12.108;2023-07-20T12:38:35;1.65;;;0.85;;
35699;SDS011;21818;51.078;12.108;2023-07-20T12:41:01;2.50;;;1.02;;
35699;SDS011;21818;51.078;12.108;2023-07-20T12:43:28;0.90;;;0.60;;
35699;SDS011;21818;51.078;12.108;2023-07-20T12:45:54;0.80;;;0.70;;
35699;SDS011;21818;51.078;12.108;2023-07-20T12:48:20;0.80;;;0.60;;
35699;SDS011;21818;51.078;12.108;2023-07-20T12:50:46;2.40;;;0.85;;
35699;SDS011;21818;51.078;12.108;2023-07-20T12:53:12;0.77;;;0.68;;
35699;SDS011;21818;51.078;12.108;2023-07-20T12:55:37;1.40;;;0.65;;
35699;SDS011;21818;51.078;12.108;2023-07-20T12:58:06;1.80;;;0.60;;
35699;SDS011;21818;51.078;12.108;2023-07-20T13:00:33;0.65;;;0.47;;
35699;SDS011;21818;51.078;12.108;2023-07-20T13:02:59;1.20;;;0.60;;
35699;SDS011;21818;51.078;12.108;2023-07-20T13:05:25;1.23;;;0.77;;
35699;SDS011;21818;51.078;12.108;2023-07-20T13:07:50;1.23;;;0.80;;
35699;SDS011;21818;51.078;12.108;2023-07-20T13:10:16;0.70;;;0.70;;
35699;SDS011;21818;51.078;12.108;2023-07-20T13:12:42;0.43;;;0.30;;
35699;SDS011;21818;51.078;12.108;2023-07-20T13:15:08;0.82;;;0.63;;
35699;SDS011;21818;51.078;12.108;2023-07-20T13:17:35;0.77;;;0.50;;
35699;SDS011;21818;51.078;12.108;2023-07-20T13:20:02;1.20;;;0.63;;
35699;SDS011;21818;51.078;12.108;2023-07-20T13:22:32;1.00;;;0.70;;
35699;SDS011;21818;51.078;12.108;2023-07-20T13:24:59;0.60;;;0.50;;
35699;SDS011;21818;51.078;12.108;2023-07-20T13:27:24;1.20;;;0.68;;
35699;SDS011;21818;51.078;12.108;2023-07-20T13:29:53;0.68;;;0.50;;
35699;SDS011;21818;51.078;12.108;2023-07-20T13:32:19;0.45;;;0.43;;
35699;SDS011;21818;51.078;12.108;2023-07-20T13:34:45;0.90;;;0.57;;
35699;SDS011;21818;51.078;12.108;2023-07-20T13:37:11;0.57;;;0.50;;
35699;SDS011;21818;51.078;12.108;2023-07-20T13:39:37;1.20;;;0.57;;
35699;SDS011;21818;51.078;12.108;2023-07-20T13:42:03;1.30;;;0.68;;
35699;SDS011;21818;51.078;12.108;2023-07-20T13:44:33;1.00;;;0.60;;
35699;SDS011;21818;51.078;12.108;2023-07-20T13:46:59;1.13;;;0.70;;
35699;SDS011;21818;51.078;12.108;2023-07-20T13:49:26;2.03;;;0.57;;
35699;SDS011;21818;51.078;12.108;2023-07-20T13:51:51;0.63;;;0.50;;
35699;SDS011;21818;51.078;12.108;2023-07-20T13:54:17;0.90;;;0.60;;
35699;SDS011;21818;51.078;12.108;2023-07-20T13:56:42;2.97;;;1.50;;
35699;SDS011;21818;51.078;12.108;2023-07-20T13:59:08;0.90;;;0.60;;
35699;SDS011;21818;51.078;12.108;2023-07-20T14:01:34;0.80;;;0.50;;
35699;SDS011;21818;51.078;12.108;2023-07-20T14:04:00;0.60;;;0.45;;
35699;SDS011;21818;51.078;12.108;2023-07-20T14:06:29;1.02;;;0.50;;
35699;SDS011;21818;51.078;12.108;2023-07-20T14:08:55;1.10;;;0.50;;
35699;SDS011;21818;51.078;12.108;2023-07-20T14:11:21;1.90;;;0.68;;
35699;SDS011;21818;51.078;12.108;2023-07-20T14:13:48;1.75;;;0.50;;
35699;SDS011;21818;51.078;12.108;2023-07-20T14:16:14;1.00;;;0.63;;
35699;SDS011;21818;51.078;12.108;2023-07-20T14:18:40;0.88;;;0.73;;
35699;SDS011;21818;51.078;12.108;2023-07-20T14:21:06;1.67;;;0.77;;
35699;SDS011;21818;51.078;12.108;2023-07-20T14:23:32;1.17;;;0.75;;
35699;SDS011;21818;51.078;12.108;2023-07-20T14:25:57;1.48;;;0.70;;
35699;SDS011;21818;51.078;12.108;2023-07-20T14:28:24;2.03;;;0.63;;
35699;SDS011;21818;51.078;12.108;2023-07-20T14:30:49;0.77;;;0.70;;
35699;SDS011;21818;51.078;12.108;2023-07-20T14:33:16;0.50;;;0.47;;
35699;SDS011;21818;51.078;12.108;2023-07-20T14:35:42;1.58;;;0.70;;
35699;SDS011;21818;51.078;12.108;2023-07-20T14:38:07;1.85;;;0.60;;
35699;SDS011;21818;51.078;12.108;2023-07-20T14:40:33;1.52;;;0.50;;
35699;SDS011;21818;51.078;12.108;2023-07-20T14:42:59;0.88;;;0.60;;
35699;SDS011;21818;51.078;12.108;2023-07-20T14:45:28;1.17;;;0.57;;
35699;SDS011;21818;51.078;12.108;2023-07-20T14:47:54;0.60;;;0.50;;